Time;durP1;ratioP1;P1;durP2;ratioP2;P2;SDS_P1;SDS_P2;PMS_P1;PMS_P2;Temp;Humidity;BMP_temperature;BMP_pressure;BME280_temperature;BME280_humidity;BME280_pressure;Samples;Min_cycle;Max_cycle;Signal;HPM_P1;HPM_P2
2022/09/21 00:01:13;;;;;;;1.98;0.50;;;;;;;5.87;100.00;102259.56;4810040;29;20034;-81
2022/09/21 00:03:43;;;;;;;1.02;0.50;;;;;;;6.00;100.00;102288.78;4789799;29;20027;-80
2022/09/21 00:06:15;;;;;;;1.73;0.47;;;;;;;5.97;100.00;102305.91;4812362;29;20042;-81
2022/09/21 00:08:41;;;;;;;3.20;0.63;;;;;;;5.95;100.00;102307.84;4798024;29;20049;-81
2022/09/21 00:11:11;;;;;;;1.65;0.50;;;;;;;5.94;100.00;102306.16;4807276;29;20106;-80
2022/09/21 00:13:36;;;;;;;5.72;0.60;;;;;;;5.88;100.00;102301.31;4808388;29;20442;-81
2022/09/21 00:16:05;;;;;;;1.50;0.50;;;;;;;5.84;100.00;102298.06;4787816;29;20046;-81
2022/09/21 00:18:31;;;;;;;1.67;0.85;;;;;;;5.57;100.00;102261.22;4805229;29;20063;-81
2022/09/21 00:20:58;;;;;;;1.77;0.50;;;;;;;5.76;100.00;102300.56;4786740;29;20365;-81
2022/09/21 00:23:24;;;;;;;1.65;0.55;;;;;;;5.65;100.00;102293.44;4820825;29;20034;-80
2022/09/21 00:25:50;;;;;;;1.48;0.60;;;;;;;5.68;100.00;102303.00;4804645;29;20045;-80
2022/09/21 00:28:15;;;;;;;2.95;0.65;;;;;;;5.64;100.00;102299.75;4807440;29;20465;-79
2022/09/21 00:30:41;;;;;;;2.45;0.60;;;;;;;5.46;100.00;102274.59;4791736;29;20026;-80
2022/09/21 00:33:06;;;;;;;1.85;0.50;;;;;;;5.62;100.00;102303.53;4808246;29;20034;-81
2022/09/21 00:35:33;;;;;;;1.35;0.55;;;;;;;5.63;100.00;102305.25;4806208;29;20031;-80
2022/09/21 00:38:02;;;;;;;1.30;0.40;;;;;;;5.44;100.00;102265.06;4792310;29;20069;-81
2022/09/21 00:40:29;;;;;;;2.88;0.60;;;;;;;5.64;100.00;102298.91;4790742;29;20080;-80
2022/09/21 00:43:10;;;;;;;1.13;0.50;;;;;;;5.63;100.00;102302.56;4792412;29;20061;-80
2022/09/21 00:45:37;;;;;;;2.70;0.50;;;;;;;5.61;100.00;102309.84;4808250;29;20033;-81
2022/09/21 00:48:02;;;;;;;2.70;0.60;;;;;;;5.60;100.00;102303.66;4807134;29;20053;-81
2022/09/21 00:50:28;;;;;;;0.82;0.60;;;;;;;5.38;100.00;102280.59;4808691;29;20031;-81
2022/09/21 00:52:57;;;;;;;1.13;0.57;;;;;;;5.49;100.00;102303.72;4808412;29;20038;-81
2022/09/21 00:55:37;;;;;;;1.10;0.50;;;;;;;5.04;100.00;102231.88;4800888;29;20374;-81
2022/09/21 00:58:09;;;;;;;2.17;0.60;;;;;;;5.42;100.00;102292.69;4810371;29;20450;-81
2022/09/21 01:00:36;;;;;;;3.30;0.52;;;;;;;5.54;100.00;102308.69;4807257;29;20118;-80
2022/09/21 01:03:02;;;;;;;2.90;0.50;;;;;;;5.40;100.00;102276.00;4790092;29;20056;-81
2022/09/21 01:05:29;;;;;;;2.55;0.52;;;;;;;5.39;100.00;102265.41;4788421;30;20031;-81
2022/09/21 01:07:59;;;;;;;0.73;0.45;;;;;;;5.62;100.00;102300.84;4789013;30;20043;-81
2022/09/21 01:10:26;;;;;;;0.73;0.40;;;;;;;5.57;100.00;102301.25;4794301;29;20019;-80
2022/09/21 01:13:19;;;;;;;2.63;0.52;;;;;;;5.55;100.00;102303.19;4806395;29;20122;-80
2022/09/21 01:15:57;;;;;;;0.98;0.50;;;;;;;5.41;100.00;102287.50;4791799;29;20038;-80
2022/09/21 01:18:50;;;;;;;2.97;0.45;;;;;;;5.48;100.00;102296.69;4810905;29;20059;-81
2022/09/21 01:21:28;;;;;;;2.08;0.60;;;;;;;5.42;100.00;102308.72;4810364;29;20089;-80
2022/09/21 01:24:13;;;;;;;2.25;0.70;;;;;;;5.39;100.00;102308.13;4808802;29;20031;-80
2022/09/21 01:27:15;;;;;;;2.15;0.50;;;;;;;5.29;100.00;102308.06;4803047;29;20069;-80
2022/09/21 01:29:51;;;;;;;0.70;0.40;;;;;;;5.06;100.00;102277.94;4809338;29;20077;-80
2022/09/21 01:32:28;;;;;;;2.63;0.30;;;;;;;5.17;100.00;102315.28;4809784;29;20046;-80
2022/09/21 01:35:06;;;;;;;1.10;0.40;;;;;;;5.20;100.00;102311.50;4810730;29;20049;-79
2022/09/21 01:37:43;;;;;;;2.17;0.50;;;;;;;5.21;100.00;102307.00;4808674;29;20151;-79
2022/09/21 01:40:20;;;;;;;0.40;0.30;;;;;;;5.13;100.00;102305.84;4810728;29;20472;-80
2022/09/21 01:42:48;;;;;;;1.65;0.50;;;;;;;5.06;100.00;102296.63;4810073;29;20037;-80
2022/09/21 01:45:20;;;;;;;1.75;0.40;;;;;;;5.06;100.00;102290.44;4809473;29;20035;-80
2022/09/21 01:47:48;;;;;;;4.03;0.50;;;;;;;5.14;100.00;102310.19;4808799;29;20481;-80
2022/09/21 01:50:16;;;;;;;0.98;0.38;;;;;;;5.12;100.00;102312.13;4809418;29;20441;-80
2022/09/21 01:52:44;;;;;;;1.35;0.40;;;;;;;5.11;100.00;102305.09;4789666;29;20027;-80
2022/09/21 01:55:19;;;;;;;0.88;0.38;;;;;;;5.07;100.00;102298.31;4790470;30;20035;-80
2022/09/21 01:57:54;;;;;;;1.25;0.40;;;;;;;5.06;100.00;102301.09;4797566;29;20038;-80
2022/09/21 02:00:20;;;;;;;1.98;0.50;;;;;;;5.07;100.00;102309.00;4793397;29;20038;-80
2022/09/21 02:02:52;;;;;;;0.82;0.40;;;;;;;4.91;100.00;102289.88;4789618;29;21982;-80
2022/09/21 02:05:21;;;;;;;0.70;0.30;;;;;;;4.86;100.00;102292.91;4791649;30;20031;-80
2022/09/21 02:07:47;;;;;;;0.50;0.30;;;;;;;4.92;100.00;102304.91;4776788;29;20048;-80
2022/09/21 02:10:43;;;;;;;2.20;0.50;;;;;;;5.00;100.00;102313.16;4808174;29;20032;-80
2022/09/21 02:13:09;;;;;;;;;;;;;;;4.93;100.00;102315.47;4787695;30;20104;-80
2022/09/21 02:15:52;;;;;;;4.47;0.68;;;;;;;4.88;100.00;102314.13;4790802;30;19917;-80
2022/09/21 02:18:44;;;;;;;0.57;0.47;;;;;;;4.69;100.00;102288.94;4790065;30;20197;-80
2022/09/21 02:21:28;;;;;;;4.18;0.60;;;;;;;4.84;100.00;102312.69;4804112;29;20260;-80
2022/09/21 02:24:21;;;;;;;0.70;0.50;;;;;;;4.55;100.00;102272.38;4809612;29;20091;-79
2022/09/21 02:27:02;;;;;;;2.50;0.47;;;;;;;4.72;100.00;102301.19;4807945;29;20023;-80
2022/09/21 02:29:37;;;;;;;2.17;0.50;;;;;;;4.60;100.00;102280.84;4809193;29;20030;-79
2022/09/21 02:32:11;;;;;;;4.63;0.60;;;;;;;4.60;100.00;102276.38;4809258;29;20446;-80
2022/09/21 02:34:44;;;;;;;1.17;0.50;;;;;;;4.77;100.00;102312.34;4792907;29;20401;-80
2022/09/21 02:37:27;;;;;;;2.67;0.57;;;;;;;4.75;100.00;102311.63;4809241;29;20109;-80
2022/09/21 02:40:03;;;;;;;1.38;0.60;;;;;;;4.75;100.00;102313.44;4809317;29;20030;-80
2022/09/21 02:42:37;;;;;;;1.33;0.50;;;;;;;4.75;100.00;102316.09;4792392;29;20027;-80
2022/09/21 02:45:17;;;;;;;0.98;0.40;;;;;;;4.78;100.00;102303.38;4808650;29;20118;-80
2022/09/21 02:47:57;;;;;;;1.90;0.50;;;;;;;4.72;100.00;102298.53;4807953;29;20403;-80
2022/09/21 02:50:32;;;;;;;1.40;0.45;;;;;;;4.70;100.00;102304.00;4792017;29;20023;-80
2022/09/21 02:53:00;;;;;;;2.80;0.63;;;;;;;4.70;100.00;102309.34;4790891;29;20040;-80
2022/09/21 02:55:26;;;;;;;1.40;0.40;;;;;;;4.14;100.00;102224.13;4809268;29;20035;-80
2022/09/21 02:57:53;;;;;;;0.63;0.40;;;;;;;4.65;100.00;102314.19;4792280;29;20527;-80
2022/09/21 03:00:19;;;;;;;1.48;0.43;;;;;;;4.65;100.00;102311.50;4808976;29;20030;-80
2022/09/21 03:02:45;;;;;;;1.83;0.50;;;;;;;4.46;100.00;102274.81;4808846;29;20103;-80
2022/09/21 03:05:13;;;;;;;0.70;0.50;;;;;;;4.69;100.00;102299.63;4792246;29;20050;-80
2022/09/21 03:07:38;;;;;;;1.20;0.50;;;;;;;4.71;100.00;102312.84;4808869;29;20042;-80
2022/09/21 03:10:07;;;;;;;1.52;0.57;;;;;;;4.62;100.00;102297.59;4808927;29;20042;-80
2022/09/21 03:12:32;;;;;;;0.73;0.45;;;;;;;4.66;100.00;102307.03;4808993;29;20027;-80
2022/09/21 03:14:58;;;;;;;2.92;0.70;;;;;;;4.50;100.00;102279.91;4791895;29;20049;-80
2022/09/21 03:17:24;;;;;;;1.60;0.60;;;;;;;4.66;100.00;102315.00;4774367;29;20115;-80
2022/09/21 03:19:49;;;;;;;1.65;0.60;;;;;;;4.54;100.00;102289.38;4806819;29;20467;-80
2022/09/21 03:22:16;;;;;;;1.00;0.60;;;;;;;4.68;100.00;102311.25;4799950;29;20039;-80
2022/09/21 03:24:44;;;;;;;3.10;0.60;;;;;;;4.70;100.00;102314.66;4789991;30;20043;-81
2022/09/21 03:27:11;;;;;;;2.83;0.50;;;;;;;4.70;100.00;102313.78;4789332;30;20035;-80
2022/09/21 03:29:36;;;;;;;1.05;0.60;;;;;;;4.74;100.00;102317.09;4775294;30;20093;-80
2022/09/21 03:32:02;;;;;;;2.58;1.00;;;;;;;4.76;100.00;102320.47;4784776;29;20034;-80
2022/09/21 03:34:30;;;;;;;1.88;0.77;;;;;;;4.78;100.00;102316.72;4778015;29;20039;-80
2022/09/21 03:36:56;;;;;;;2.17;0.80;;;;;;;4.78;100.00;102314.03;4792105;29;20035;-80
2022/09/21 03:39:21;;;;;;;1.90;0.70;;;;;;;4.75;100.00;102319.63;4774356;30;20378;-80
2022/09/21 03:41:47;;;;;;;1.63;0.52;;;;;;;4.66;100.00;102304.34;4791085;30;20031;-80
2022/09/21 03:44:14;;;;;;;1.52;0.70;;;;;;;4.70;100.00;102317.34;4773941;30;20469;-80
2022/09/21 03:46:39;;;;;;;2.42;0.90;;;;;;;4.61;100.00;102307.41;4775463;29;20035;-79
2022/09/21 03:49:05;;;;;;;2.80;0.80;;;;;;;4.48;100.00;102291.53;4800142;29;20105;-83
2022/09/21 03:51:30;;;;;;;3.97;1.38;;;;;;;4.71;100.00;102321.69;4787206;29;20034;-81
2022/09/21 03:53:56;;;;;;;1.83;1.00;;;;;;;4.71;100.00;102312.84;4814995;29;20038;-81
2022/09/21 03:56:21;;;;;;;3.75;1.13;;;;;;;4.80;100.00;102327.22;4780335;29;20470;-80
2022/09/21 03:58:46;;;;;;;4.00;1.17;;;;;;;4.80;100.00;102325.44;4799484;29;20515;-81
2022/09/21 04:01:12;;;;;;;3.90;1.23;;;;;;;4.45;100.00;102269.63;4817075;29;20023;-80
2022/09/21 04:03:37;;;;;;;4.75;1.13;;;;;;;4.80;100.00;102321.91;4812969;29;20094;-79
2022/09/21 04:06:10;;;;;;;3.70;0.85;;;;;;;4.52;100.00;102289.47;4807611;29;20046;-80
2022/09/21 04:08:36;;;;;;;2.13;0.80;;;;;;;4.68;100.00;102326.41;4811925;29;20074;-80
2022/09/21 04:11:11;;;;;;;3.08;1.00;;;;;;;4.44;100.00;102298.09;4824025;29;20095;-80
2022/09/21 04:13:37;;;;;;;2.20;1.00;;;;;;;4.63;100.00;102323.25;4821473;29;20045;-80
2022/09/21 04:16:03;;;;;;;2.05;1.00;;;;;;;4.64;100.00;102331.16;4822737;29;20031;-79
2022/09/21 04:18:29;;;;;;;2.50;1.00;;;;;;;4.64;100.00;102317.81;4809713;29;20073;-80
2022/09/21 04:20:54;;;;;;;3.28;1.30;;;;;;;4.70;100.00;102324.47;4825281;29;20011;-80
2022/09/21 04:23:20;;;;;;;5.68;1.58;;;;;;;4.80;100.00;102322.78;4820734;29;20039;-80
2022/09/21 04:25:48;;;;;;;2.65;1.23;;;;;;;4.83;100.00;102325.16;4793201;29;20031;-80
2022/09/21 04:28:13;;;;;;;2.45;1.35;;;;;;;4.64;100.00;102290.31;4817006;29;20038;-80
2022/09/21 04:30:39;;;;;;;3.25;1.00;;;;;;;4.77;100.00;102322.16;4804673;29;20031;-80
2022/09/21 04:33:04;;;;;;;4.32;1.20;;;;;;;4.53;100.00;102284.97;4803218;29;20514;-78
2022/09/21 04:35:30;;;;;;;3.17;1.10;;;;;;;4.74;100.00;102311.75;4801985;29;20050;-79
2022/09/21 04:37:55;;;;;;;2.25;1.23;;;;;;;4.98;100.00;102320.41;4785318;29;20121;-79
2022/09/21 04:40:22;;;;;;;4.10;1.40;;;;;;;5.24;100.00;102317.44;4774459;29;20041;-79
2022/09/21 04:42:57;;;;;;;2.65;1.30;;;;;;;5.14;100.00;102285.31;4779854;29;20454;-78
2022/09/21 04:45:23;;;;;;;4.43;1.40;;;;;;;5.53;100.00;102312.31;4778155;29;20377;-79
2022/09/21 04:47:48;;;;;;;3.50;1.00;;;;;;;5.68;100.00;102321.72;4804027;29;20038;-78
2022/09/21 04:50:14;;;;;;;5.07;1.33;;;;;;;5.83;100.00;102323.09;4804515;29;20031;-79
2022/09/21 04:52:39;;;;;;;5.72;1.30;;;;;;;5.95;100.00;102323.03;4796663;29;20384;-79
2022/09/21 04:55:06;;;;;;;2.45;1.42;;;;;;;5.71;100.00;102264.53;4777519;29;20038;-79
2022/09/21 04:57:31;;;;;;;3.53;1.35;;;;;;;5.96;100.00;102306.03;4804482;29;20465;-78
2022/09/21 04:59:57;;;;;;;5.53;1.30;;;;;;;6.13;100.00;102328.66;4808438;29;20149;-79
2022/09/21 05:02:22;;;;;;;7.65;1.80;;;;;;;6.23;100.00;102321.50;4802602;29;20068;-79
2022/09/21 05:04:48;;;;;;;2.22;1.15;;;;;;;5.17;100.00;102133.81;4796174;29;20101;-79
2022/09/21 05:07:14;;;;;;;4.38;1.60;;;;;;;6.25;100.00;102304.34;4790202;29;20059;-79
2022/09/21 05:12:23;;;;;;;4.65;1.33;;;;;;;6.37;100.00;102302.44;4793240;29;20049;-79
2022/09/21 05:14:48;;;;;;;7.18;1.38;;;;;;;6.46;100.00;102323.03;4797339;29;20027;-79
2022/09/21 05:17:14;;;;;;;9.88;1.52;;;;;;;6.48;100.00;102318.38;4798193;29;20045;-78
2022/09/21 05:19:40;;;;;;;5.53;1.17;;;;;;;6.56;100.00;102329.25;4776445;29;20053;-79
2022/09/21 05:22:05;;;;;;;6.65;1.33;;;;;;;6.59;100.00;102317.44;4776945;29;20082;-80
2022/09/21 05:24:30;;;;;;;4.07;1.40;;;;;;;6.62;100.00;102316.31;4802900;29;20034;-79
2022/09/21 05:26:56;;;;;;;3.33;1.45;;;;;;;6.75;100.00;102320.41;4810047;29;20035;-80
2022/09/21 05:29:21;;;;;;;3.47;1.60;;;;;;;6.70;100.00;102309.28;4799918;29;20058;-80
2022/09/21 05:31:52;;;;;;;3.63;1.42;;;;;;;6.90;100.00;102328.06;4771617;29;20035;-78
2022/09/21 05:34:42;;;;;;;3.90;1.50;;;;;;;6.62;100.00;102262.81;4802869;29;20045;-78
2022/09/21 05:37:26;;;;;;;4.60;1.90;;;;;;;7.16;100.00;102341.78;4800028;29;20039;-79
2022/09/21 05:39:51;;;;;;;4.40;1.67;;;;;;;7.22;100.00;102338.56;4800113;29;20030;-78
2022/09/21 05:42:17;;;;;;;3.17;1.60;;;;;;;7.36;100.00;102345.31;4802655;29;20363;-78
2022/09/21 05:44:43;;;;;;;3.97;1.40;;;;;;;7.49;100.00;102341.38;4774906;30;20031;-78
2022/09/21 05:47:14;;;;;;;10.00;1.85;;;;;;;7.57;100.00;102343.34;4785716;30;20051;-78
2022/09/21 05:50:01;;;;;;;3.47;1.58;;;;;;;7.60;100.00;102347.56;4786750;30;20515;-78
2022/09/21 05:52:50;;;;;;;3.00;1.38;;;;;;;7.53;100.00;102328.53;4793705;29;20054;-79
2022/09/21 05:55:25;;;;;;;3.33;1.38;;;;;;;7.68;100.00;102345.03;4804999;29;20023;-78
2022/09/21 05:57:56;;;;;;;5.25;1.60;;;;;;;7.68;100.00;102335.19;4800215;29;20469;-78
2022/09/21 06:00:22;;;;;;;4.18;1.55;;;;;;;7.75;100.00;102332.78;4807397;29;20043;-78
2022/09/21 06:03:05;;;;;;;5.20;1.60;;;;;;;7.88;100.00;102325.28;4793890;29;20114;-78
2022/09/21 06:05:31;;;;;;;4.78;1.45;;;;;;;8.17;100.00;102351.16;4806454;29;20042;-79
2022/09/21 06:07:56;;;;;;;4.30;1.33;;;;;;;8.30;100.00;102346.31;4815294;29;20034;-79
2022/09/21 06:10:23;;;;;;;2.50;1.20;;;;;;;8.39;100.00;102344.63;4779182;29;20027;-79
2022/09/21 06:12:48;;;;;;;4.00;1.45;;;;;;;8.54;100.00;102353.03;4807842;29;20116;-79
2022/09/21 06:15:14;;;;;;;5.95;1.30;;;;;;;8.66;100.00;102352.69;4778546;29;20038;-80
2022/09/21 06:17:40;;;;;;;5.45;1.50;;;;;;;8.66;100.00;102319.66;4795222;29;20063;-81
2022/09/21 06:20:06;;;;;;;4.75;1.55;;;;;;;8.99;100.00;102352.25;4809449;29;20043;-80
2022/09/21 06:22:32;;;;;;;6.07;1.60;;;;;;;9.13;100.00;102351.72;4793859;29;20477;-80
2022/09/21 06:24:57;;;;;;;5.63;1.45;;;;;;;9.26;100.00;102354.88;4804177;29;20082;-80
2022/09/21 06:27:23;;;;;;;4.88;1.38;;;;;;;9.38;100.00;102359.03;4794180;29;20094;-80
2022/09/21 06:29:48;;;;;;;6.72;1.60;;;;;;;9.37;100.00;102330.50;4779207;30;20011;-79
2022/09/21 06:32:13;;;;;;;4.20;1.27;;;;;;;9.70;100.00;102364.84;4793143;29;20030;-79
2022/09/21 06:34:39;;;;;;;9.10;1.60;;;;;;;9.82;100.00;102350.16;4807307;29;20048;-80
2022/09/21 06:37:04;;;;;;;5.93;1.52;;;;;;;9.94;100.00;102356.16;4777986;29;20042;-80
2022/09/21 06:39:30;;;;;;;4.55;1.30;;;;;;;10.10;100.00;102351.72;4791772;29;20380;-80
2022/09/21 06:41:56;;;;;;;5.13;1.13;;;;;;;10.25;100.00;102357.34;4793061;29;20059;-80
2022/09/21 06:44:21;;;;;;;7.82;1.42;;;;;;;10.41;100.00;102361.19;4792990;29;20038;-79
2022/09/21 06:46:46;;;;;;;3.38;1.35;;;;;;;10.56;100.00;102368.50;4778563;29;20041;-79
2022/09/21 06:49:12;;;;;;;5.03;1.40;;;;;;;10.52;100.00;102345.59;4791847;29;20100;-80
2022/09/21 06:51:37;;;;;;;5.18;1.20;;;;;;;10.79;100.00;102368.78;4798293;29;20111;-80
2022/09/21 06:54:03;;;;;;;1.90;1.20;;;;;;;10.86;100.00;102346.56;4791119;29;20493;-80
2022/09/21 06:56:28;;;;;;;9.68;1.73;;;;;;;11.12;100.00;102370.72;4807816;29;20043;-80
2022/09/21 06:58:54;;;;;;;2.60;1.20;;;;;;;11.25;100.00;102368.38;4808019;29;20054;-80
2022/09/21 07:01:20;;;;;;;5.43;1.20;;;;;;;11.24;100.00;102337.06;4791359;29;20466;-80
2022/09/21 07:03:49;;;;;;;5.15;0.90;;;;;;;11.51;100.00;102365.56;4777355;29;20034;-80
2022/09/21 07:06:14;;;;;;;3.08;1.20;;;;;;;11.66;100.00;102368.47;4788133;29;20023;-80
2022/09/21 07:08:41;;;;;;;4.55;1.38;;;;;;;11.85;100.00;102370.00;4793157;29;20035;-79
2022/09/21 07:11:07;;;;;;;3.55;0.93;;;;;;;12.05;100.00;102365.09;4808255;29;20027;-80
2022/09/21 07:13:33;;;;;;;5.53;1.17;;;;;;;12.15;100.00;102369.31;4791494;29;20366;-80
2022/09/21 07:16:04;;;;;;;7.80;1.30;;;;;;;12.19;100.00;102351.75;4808898;29;22097;-79
2022/09/21 07:18:29;;;;;;;4.18;1.20;;;;;;;12.32;100.00;102347.69;4793413;29;20065;-80
2022/09/21 07:20:54;;;;;;;2.63;1.05;;;;;;;12.62;100.00;102357.69;4807860;29;20035;-80
2022/09/21 07:23:21;;;;;;;4.82;0.90;;;;;;;12.80;100.00;102362.84;4791438;29;20050;-79
2022/09/21 07:25:49;;;;;;;4.30;1.10;;;;;;;12.97;100.00;102369.00;4792919;29;20026;-80
2022/09/21 07:28:15;;;;;;;4.30;1.00;;;;;;;13.15;100.00;102366.91;4791275;29;20041;-80
2022/09/21 07:30:40;;;;;;;5.72;1.00;;;;;;;13.33;100.00;102363.09;4808780;29;20114;-80
2022/09/21 07:33:06;;;;;;;3.10;1.00;;;;;;;13.51;100.00;102365.50;4795134;29;20035;-80
2022/09/21 07:35:31;;;;;;;4.40;0.90;;;;;;;13.66;100.00;102369.13;4807598;29;20043;-80
2022/09/21 07:38:02;;;;;;;4.55;0.80;;;;;;;13.66;100.00;102338.53;4776669;29;20043;-80
2022/09/21 07:40:28;;;;;;;3.78;0.70;;;;;;;13.93;100.00;102362.28;4808590;29;20110;-80
2022/09/21 07:42:58;;;;;;;5.65;0.90;;;;;;;14.00;100.00;102365.94;4807371;29;20531;-80
2022/09/21 07:45:25;;;;;;;4.28;1.38;;;;;;;14.00;100.00;102348.84;4806529;29;20054;-79
2022/09/21 07:47:53;;;;;;;3.50;0.73;;;;;;;14.19;100.00;102359.16;4792913;29;20138;-80
2022/09/21 07:50:21;;;;;;;3.88;1.00;;;;;;;14.32;100.00;102370.19;4809288;29;20157;-80
2022/09/21 07:52:47;;;;;;;5.32;0.80;;;;;;;14.14;100.00;102323.69;4794328;29;20046;-80
2022/09/21 07:55:13;;;;;;;5.25;0.70;;;;;;;14.51;100.00;102371.53;4778893;29;20034;-81
2022/09/21 08:00:24;;;;;;;1.60;0.43;;;;;;;14.67;100.00;102369.66;4801795;29;20573;-80
2022/09/21 08:02:49;;;;;;;5.85;1.00;;;;;;;14.77;100.00;102370.22;4809247;29;20098;-80
2022/09/21 08:05:15;;;;;;;2.15;0.60;;;;;;;14.81;100.00;102379.66;4777825;29;20129;-80
2022/09/21 08:07:40;;;;;;;3.55;0.68;;;;;;;14.72;100.00;102372.66;4802973;29;20045;-80
2022/09/21 08:10:06;;;;;;;2.78;0.40;;;;;;;14.78;100.00;102371.91;4809852;29;20034;-80
2022/09/21 08:12:31;;;;;;;1.23;0.40;;;;;;;14.43;99.06;102328.25;4809482;29;20601;-81
2022/09/21 08:14:57;;;;;;;3.53;0.47;;;;;;;14.61;98.37;102378.56;4810585;29;20152;-81
2022/09/21 08:17:23;;;;;;;6.85;0.80;;;;;;;14.67;98.65;102375.06;4811114;29;20483;-80
2022/09/21 08:19:49;;;;;;;3.72;0.38;;;;;;;14.81;98.07;102368.81;4797065;29;20038;-81
2022/09/21 08:22:14;;;;;;;2.97;0.50;;;;;;;14.83;98.50;102376.75;4797747;29;20106;-80
2022/09/21 08:24:43;;;;;;;5.78;0.70;;;;;;;14.70;99.32;102372.84;4819090;29;20034;-80
2022/09/21 08:27:08;;;;;;;2.38;0.50;;;;;;;14.50;97.99;102366.25;4794917;29;20038;-80
2022/09/21 08:29:35;;;;;;;4.63;0.50;;;;;;;14.40;98.34;102371.94;4810830;29;20034;-80
2022/09/21 08:32:01;;;;;;;1.85;0.50;;;;;;;14.59;96.82;102367.06;4764813;29;20031;-80
2022/09/21 08:34:26;;;;;;;2.45;0.50;;;;;;;14.80;95.77;102375.25;4811461;29;20038;-81
2022/09/21 08:36:52;;;;;;;4.07;0.40;;;;;;;14.83;95.54;102374.03;4812444;29;20042;-80
2022/09/21 08:39:17;;;;;;;3.22;0.60;;;;;;;14.68;95.18;102360.50;4798175;29;20035;-81
2022/09/21 08:42:03;;;;;;;2.97;0.50;;;;;;;14.73;94.44;102371.59;4795637;30;20035;-81
2022/09/21 08:44:38;;;;;;;2.13;0.32;;;;;;;14.78;93.32;102369.19;4776610;30;20023;-80
2022/09/21 08:47:07;;;;;;;1.55;0.38;;;;;;;14.97;92.53;102368.59;4809949;29;20027;-81
2022/09/21 08:49:34;;;;;;;2.60;0.35;;;;;;;15.15;91.14;102375.47;4825478;29;20043;-80
2022/09/21 08:52:07;;;;;;;1.67;0.40;;;;;;;15.08;89.41;102325.75;4811225;29;20054;-80
2022/09/21 08:54:41;;;;;;;2.85;0.70;;;;;;;15.41;88.55;102375.75;4815263;29;20042;-80
2022/09/21 08:57:11;;;;;;;2.33;0.47;;;;;;;15.24;87.14;102360.78;4812466;29;20049;-81
2022/09/21 08:59:43;;;;;;;1.98;0.50;;;;;;;15.15;88.01;102373.59;4796466;29;20046;-81
2022/09/21 09:02:30;;;;;;;3.08;0.50;;;;;;;15.09;88.08;102382.50;4797653;29;20058;-80
2022/09/21 09:05:22;;;;;;;4.15;0.40;;;;;;;15.26;87.61;102373.13;4812027;29;20041;-81
2022/09/21 09:08:18;;;;;;;1.88;0.40;;;;;;;15.30;87.25;102365.44;4813054;29;20511;-80
2022/09/21 09:10:55;;;;;;;1.88;0.65;;;;;;;15.56;86.95;102372.97;4775163;29;20358;-81
2022/09/21 09:13:45;;;;;;;1.17;0.38;;;;;;;15.55;86.05;102373.19;4813193;29;20031;-81
2022/09/21 09:16:38;;;;;;;1.13;0.40;;;;;;;15.52;86.94;102374.41;4811531;29;20038;-80
2022/09/21 09:19:27;;;;;;;1.55;0.40;;;;;;;15.79;86.27;102361.09;4813440;29;20059;-81
2022/09/21 09:21:55;;;;;;;3.65;0.60;;;;;;;15.83;86.57;102368.69;4812752;29;20046;-81
2022/09/21 09:24:51;;;;;;;3.88;0.50;;;;;;;15.71;87.38;102364.81;4814178;29;20216;-80
2022/09/21 09:27:29;;;;;;;4.80;0.50;;;;;;;15.61;87.49;102350.69;4815024;29;20047;-80
2022/09/21 09:30:02;;;;;;;4.80;0.70;;;;;;;15.69;87.86;102383.16;4814776;29;20037;-80
2022/09/21 09:32:52;;;;;;;3.88;0.60;;;;;;;15.58;87.89;102370.09;4815861;29;20027;-80
2022/09/21 09:35:25;;;;;;;2.85;0.40;;;;;;;15.85;87.72;102377.44;4803043;29;20049;-80
2022/09/21 09:37:59;;;;;;;3.33;0.40;;;;;;;15.93;87.79;102379.22;4802215;30;20034;-81
2022/09/21 09:41:12;;;;;;;3.10;0.40;;;;;;;15.99;87.93;102383.81;4801076;30;20024;-80
2022/09/21 09:44:06;;;;;;;3.20;0.40;;;;;;;15.93;87.04;102374.63;4786971;29;20114;-80
2022/09/21 09:47:05;;;;;;;6.68;0.60;;;;;;;16.04;86.88;102386.81;4803184;29;20208;-81
2022/09/21 09:50:05;;;;;;;4.28;0.43;;;;;;;16.13;84.00;102385.63;4823322;29;20039;-81
2022/09/21 09:52:32;;;;;;;2.72;0.52;;;;;;;16.21;81.49;102390.91;4808318;29;20046;-80
2022/09/21 09:54:59;;;;;;;3.08;0.75;;;;;;;16.19;80.91;102384.84;4784027;30;20043;-81
2022/09/21 09:57:32;;;;;;;3.85;0.70;;;;;;;16.13;81.47;102373.94;4791988;29;20489;-81
2022/09/21 10:00:11;;;;;;;5.75;0.60;;;;;;;16.00;82.54;102362.97;4814278;29;20027;-80
2022/09/21 10:02:50;;;;;;;3.70;0.60;;;;;;;16.08;83.64;102387.25;4785439;30;20064;-81
2022/09/21 10:05:22;;;;;;;4.13;0.73;;;;;;;15.76;83.82;102340.66;4797276;30;20023;-80
2022/09/21 10:07:48;;;;;;;2.47;0.50;;;;;;;16.09;84.18;102383.50;4798695;29;20031;-80
2022/09/21 10:10:31;;;;;;;3.03;0.60;;;;;;;16.14;83.75;102387.28;4798920;30;20023;-81
2022/09/21 10:13:38;;;;;;;4.30;0.88;;;;;;;16.32;83.22;102381.34;4800915;29;20039;-80
2022/09/21 10:16:09;;;;;;;2.20;0.40;;;;;;;16.50;83.04;102374.59;4728822;30;20036;-81
2022/09/21 10:18:37;;;;;;;5.03;0.70;;;;;;;16.38;81.84;102380.56;4755145;30;20055;-80
2022/09/21 10:21:07;;;;;;;4.30;0.50;;;;;;;16.37;81.40;102367.19;4791321;29;20049;-81
2022/09/21 10:23:34;;;;;;;3.00;0.43;;;;;;;16.44;82.15;102382.50;4817800;29;20101;-80
2022/09/21 10:26:04;;;;;;;1.95;0.55;;;;;;;16.49;82.30;102372.88;4822559;29;20136;-80
2022/09/21 10:28:31;;;;;;;5.57;0.63;;;;;;;16.38;82.35;102377.84;4817337;29;20065;-81
2022/09/21 10:31:24;;;;;;;2.33;0.43;;;;;;;16.26;82.44;102376.75;4818578;29;20019;-81
2022/09/21 10:34:13;;;;;;;3.20;0.50;;;;;;;16.23;82.04;102374.41;4818361;29;20035;-81
2022/09/21 10:36:39;;;;;;;1.50;0.40;;;;;;;16.12;83.57;102383.09;4815082;29;20039;-80
2022/09/21 10:39:17;;;;;;;3.20;0.70;;;;;;;15.96;83.03;102343.53;4787656;29;20064;-81
2022/09/21 10:42:07;;;;;;;2.88;0.50;;;;;;;16.14;82.29;102370.16;4800973;29;20030;-81
2022/09/21 10:44:48;;;;;;;3.08;0.63;;;;;;;16.00;81.98;102384.69;4793214;30;20042;-81
2022/09/21 10:47:38;;;;;;;4.20;0.40;;;;;;;16.02;81.68;102374.44;4787825;29;20034;-81
2022/09/21 10:50:19;;;;;;;3.47;0.52;;;;;;;15.95;82.25;102372.53;4823236;29;20104;-81
2022/09/21 10:52:44;;;;;;;2.42;0.40;;;;;;;15.94;82.14;102387.13;4819002;29;20023;-81
2022/09/21 10:55:20;;;;;;;3.15;0.60;;;;;;;15.89;81.19;102362.47;4802814;29;20035;-81
2022/09/21 10:57:46;;;;;;;3.13;0.50;;;;;;;16.05;80.39;102365.91;4803027;29;20046;-82
2022/09/21 11:00:24;;;;;;;2.03;0.40;;;;;;;16.20;81.22;102369.38;4797769;29;20035;-80
2022/09/21 11:02:50;;;;;;;4.10;0.68;;;;;;;16.20;79.44;102359.34;4828106;29;20050;-79
2022/09/21 11:05:25;;;;;;;4.55;0.80;;;;;;;16.48;78.16;102380.22;4824593;29;20034;-80
2022/09/21 11:08:03;;;;;;;1.52;0.50;;;;;;;16.54;77.69;102351.41;4800861;29;20057;-80
2022/09/21 11:11:01;;;;;;;2.72;0.50;;;;;;;16.74;78.05;102351.50;4802408;29;20027;-81
2022/09/21 11:13:31;;;;;;;3.65;0.50;;;;;;;16.91;78.60;102377.31;4818552;29;20023;-80
2022/09/21 11:16:00;;;;;;;2.15;0.43;;;;;;;17.11;78.17;102377.41;4819248;29;20098;-80
2022/09/21 11:18:39;;;;;;;3.28;0.50;;;;;;;17.17;76.69;102373.88;4817599;29;20509;-81
2022/09/21 11:21:23;;;;;;;3.65;0.50;;;;;;;16.97;76.00;102376.50;4817041;29;20051;-81
2022/09/21 11:23:54;;;;;;;2.30;0.57;;;;;;;17.06;76.49;102364.41;4795295;29;20477;-79
2022/09/21 11:26:28;;;;;;;2.42;0.52;;;;;;;17.17;75.67;102370.31;4798391;30;20039;-81
2022/09/21 11:29:05;;;;;;;1.80;0.40;;;;;;;17.01;76.73;102383.22;4811824;29;20037;-81
2022/09/21 11:31:43;;;;;;;1.42;0.30;;;;;;;17.18;76.56;102371.97;4798843;29;20111;-80
2022/09/21 11:34:26;;;;;;;4.72;0.63;;;;;;;17.17;76.78;102373.88;4814950;29;20362;-81
2022/09/21 11:36:54;;;;;;;3.15;0.50;;;;;;;17.25;76.64;102378.28;4817777;29;20038;-81
2022/09/21 11:39:35;;;;;;;3.92;0.60;;;;;;;17.27;75.95;102379.75;4818404;29;20019;-81
2022/09/21 11:42:09;;;;;;;4.90;0.85;;;;;;;17.17;75.58;102359.44;4818562;29;20038;-80
2022/09/21 11:44:54;;;;;;;2.78;0.63;;;;;;;17.22;76.02;102376.81;4798614;30;20068;-80
2022/09/21 11:47:32;;;;;;;2.95;0.50;;;;;;;17.23;75.40;102380.38;4802351;29;20039;-80
2022/09/21 11:50:04;;;;;;;3.30;0.40;;;;;;;17.28;76.26;102373.25;4800106;30;20036;-81